<?xml version="1.0" encoding="UTF-8" standalone="no" ?>
<gpx xmlns="http://www.topografix.com/GPX/1/1" xmlns:xsi="http://www.w3.org/2001/XMLSchema-instance" xsi:schemaLocation="http://www.topografix.com/GPX/1/1 http://www.topografix.com/GPX/1/1/gpx.xsd" version="1.1" creator="VisuGPX - https://www.visugpx.com">
  <metadata>
    <name>Arête de Montseti</name>
    <desc><![CDATA[Randonnée à ski du sommet du télésiège de la Marquise de Sainte-Foy jusqu\'à Pierre Giret dans la vallée du Miroir.]]></desc>
  </metadata>
  <trk>
    <name><![CDATA[Seti-b]]></name>
    <trkseg>
      <trkpt lat="45.61578" lon="6.94215">
        <ele>2390</ele>
        <time>2008-03-15T12:53:40Z</time>
      </trkpt>
      <trkpt lat="45.61581" lon="6.94217">
        <ele>2385</ele>
        <time>2008-03-15T12:54:03Z</time>
      </trkpt>
      <trkpt lat="45.61581" lon="6.94219">
        <ele>2385</ele>
        <time>2008-03-15T12:54:30Z</time>
      </trkpt>
      <trkpt lat="45.61582" lon="6.94214">
        <ele>2386</ele>
        <time>2008-03-15T12:54:47Z</time>
      </trkpt>
      <trkpt lat="45.61631" lon="6.94183">
        <ele>2348</ele>
        <time>2008-03-15T12:58:13Z</time>
      </trkpt>
      <trkpt lat="45.61648" lon="6.94175">
        <ele>2342</ele>
        <time>2008-03-15T12:58:20Z</time>
      </trkpt>
      <trkpt lat="45.61665" lon="6.94178">
        <ele>2338</ele>
        <time>2008-03-15T12:58:24Z</time>
      </trkpt>
      <trkpt lat="45.61679" lon="6.94186">
        <ele>2333</ele>
        <time>2008-03-15T12:58:28Z</time>
      </trkpt>
      <trkpt lat="45.61689" lon="6.94179">
        <ele>2332</ele>
        <time>2008-03-15T12:58:36Z</time>
      </trkpt>
      <trkpt lat="45.61693" lon="6.94177">
        <ele>2328</ele>
        <time>2008-03-15T12:59:03Z</time>
      </trkpt>
      <trkpt lat="45.61694" lon="6.94177">
        <ele>2331</ele>
        <time>2008-03-15T12:59:19Z</time>
      </trkpt>
      <trkpt lat="45.61723" lon="6.94199">
        <ele>2330</ele>
        <time>2008-03-15T12:59:24Z</time>
      </trkpt>
      <trkpt lat="45.61747" lon="6.94208">
        <ele>2325</ele>
        <time>2008-03-15T12:59:28Z</time>
      </trkpt>
      <trkpt lat="45.61769" lon="6.94188">
        <ele>2317</ele>
        <time>2008-03-15T12:59:35Z</time>
      </trkpt>
      <trkpt lat="45.61785" lon="6.94173">
        <ele>2311</ele>
        <time>2008-03-15T12:59:40Z</time>
      </trkpt>
      <trkpt lat="45.61803" lon="6.9415">
        <ele>2301</ele>
        <time>2008-03-15T12:59:45Z</time>
      </trkpt>
      <trkpt lat="45.61814" lon="6.94142">
        <ele>2293</ele>
        <time>2008-03-15T12:59:49Z</time>
      </trkpt>
      <trkpt lat="45.61836" lon="6.94125">
        <ele>2283</ele>
        <time>2008-03-15T12:59:53Z</time>
      </trkpt>
      <trkpt lat="45.61871" lon="6.94105">
        <ele>2273</ele>
        <time>2008-03-15T12:59:57Z</time>
      </trkpt>
      <trkpt lat="45.61924" lon="6.94077">
        <ele>2263</ele>
        <time>2008-03-15T13:00:02Z</time>
      </trkpt>
      <trkpt lat="45.61974" lon="6.94072">
        <ele>2199</ele>
        <time>2008-03-15T13:00:07Z</time>
      </trkpt>
      <trkpt lat="45.61983" lon="6.94064">
        <ele>2208</ele>
        <time>2008-03-15T13:00:14Z</time>
      </trkpt>
      <trkpt lat="45.61981" lon="6.94064">
        <ele>2212</ele>
        <time>2008-03-15T13:00:28Z</time>
      </trkpt>
      <trkpt lat="45.61986" lon="6.94062">
        <ele>2221</ele>
        <time>2008-03-15T13:01:49Z</time>
      </trkpt>
      <trkpt lat="45.61986" lon="6.94061">
        <ele>2220</ele>
        <time>2008-03-15T13:01:52Z</time>
      </trkpt>
      <trkpt lat="45.61988" lon="6.94053">
        <ele>2216</ele>
        <time>2008-03-15T13:02:00Z</time>
      </trkpt>
      <trkpt lat="45.61997" lon="6.94064">
        <ele>2208</ele>
        <time>2008-03-15T13:02:06Z</time>
      </trkpt>
      <trkpt lat="45.62007" lon="6.94074">
        <ele>2207</ele>
        <time>2008-03-15T13:02:15Z</time>
      </trkpt>
      <trkpt lat="45.62008" lon="6.94074">
        <ele>2207</ele>
        <time>2008-03-15T13:02:26Z</time>
      </trkpt>
      <trkpt lat="45.62016" lon="6.94087">
        <ele>2204</ele>
        <time>2008-03-15T13:02:31Z</time>
      </trkpt>
      <trkpt lat="45.62031" lon="6.94107">
        <ele>2200</ele>
        <time>2008-03-15T13:02:35Z</time>
      </trkpt>
      <trkpt lat="45.62058" lon="6.94096">
        <ele>2193</ele>
        <time>2008-03-15T13:02:41Z</time>
      </trkpt>
      <trkpt lat="45.62081" lon="6.94096">
        <ele>2189</ele>
        <time>2008-03-15T13:02:46Z</time>
      </trkpt>
      <trkpt lat="45.62099" lon="6.94087">
        <ele>2185</ele>
        <time>2008-03-15T13:02:49Z</time>
      </trkpt>
      <trkpt lat="45.62111" lon="6.94086">
        <ele>2153</ele>
        <time>2008-03-15T13:02:55Z</time>
      </trkpt>
      <trkpt lat="45.62128" lon="6.94085">
        <ele>2131</ele>
        <time>2008-03-15T13:03:01Z</time>
      </trkpt>
      <trkpt lat="45.62128" lon="6.94076">
        <ele>2130</ele>
        <time>2008-03-15T13:03:02Z</time>
      </trkpt>
      <trkpt lat="45.62152" lon="6.94074">
        <ele>2117</ele>
        <time>2008-03-15T13:03:08Z</time>
      </trkpt>
      <trkpt lat="45.62154" lon="6.94068">
        <ele>2117</ele>
        <time>2008-03-15T13:03:09Z</time>
      </trkpt>
      <trkpt lat="45.62173" lon="6.94061">
        <ele>2109</ele>
        <time>2008-03-15T13:03:15Z</time>
      </trkpt>
      <trkpt lat="45.62179" lon="6.94054">
        <ele>2108</ele>
        <time>2008-03-15T13:03:17Z</time>
      </trkpt>
      <trkpt lat="45.62275" lon="6.9399">
        <ele>2066</ele>
        <time>2008-03-15T13:06:28Z</time>
      </trkpt>
      <trkpt lat="45.62296" lon="6.93965">
        <ele>2065</ele>
        <time>2008-03-15T13:06:31Z</time>
      </trkpt>
      <trkpt lat="45.62309" lon="6.93949">
        <ele>2063</ele>
        <time>2008-03-15T13:06:33Z</time>
      </trkpt>
      <trkpt lat="45.62356" lon="6.939">
        <ele>2028</ele>
        <time>2008-03-15T13:06:45Z</time>
      </trkpt>
      <trkpt lat="45.62387" lon="6.93863">
        <ele>2031</ele>
        <time>2008-03-15T13:07:04Z</time>
      </trkpt>
      <trkpt lat="45.624" lon="6.93829">
        <ele>2030</ele>
        <time>2008-03-15T13:07:23Z</time>
      </trkpt>
      <trkpt lat="45.62435" lon="6.93788">
        <ele>2028</ele>
        <time>2008-03-15T13:07:46Z</time>
      </trkpt>
      <trkpt lat="45.62446" lon="6.9377">
        <ele>2024</ele>
        <time>2008-03-15T13:08:05Z</time>
      </trkpt>
      <trkpt lat="45.62453" lon="6.93771">
        <ele>2020</ele>
        <time>2008-03-15T13:08:23Z</time>
      </trkpt>
      <trkpt lat="45.62457" lon="6.93765">
        <ele>2017</ele>
        <time>2008-03-15T13:08:45Z</time>
      </trkpt>
      <trkpt lat="45.62457" lon="6.93756">
        <ele>2014</ele>
        <time>2008-03-15T13:09:05Z</time>
      </trkpt>
      <trkpt lat="45.62468" lon="6.93758">
        <ele>2019</ele>
        <time>2008-03-15T13:09:20Z</time>
      </trkpt>
      <trkpt lat="45.62473" lon="6.93758">
        <ele>2018</ele>
        <time>2008-03-15T13:09:36Z</time>
      </trkpt>
      <trkpt lat="45.62478" lon="6.93755">
        <ele>2021</ele>
        <time>2008-03-15T13:09:52Z</time>
      </trkpt>
      <trkpt lat="45.62483" lon="6.93742">
        <ele>2020</ele>
        <time>2008-03-15T13:10:23Z</time>
      </trkpt>
      <trkpt lat="45.62488" lon="6.93728">
        <ele>2020</ele>
        <time>2008-03-15T13:10:43Z</time>
      </trkpt>
      <trkpt lat="45.62497" lon="6.93719">
        <ele>2019</ele>
        <time>2008-03-15T13:11:01Z</time>
      </trkpt>
      <trkpt lat="45.62501" lon="6.93709">
        <ele>2023</ele>
        <time>2008-03-15T13:11:23Z</time>
      </trkpt>
      <trkpt lat="45.62508" lon="6.93699">
        <ele>2022</ele>
        <time>2008-03-15T13:11:47Z</time>
      </trkpt>
      <trkpt lat="45.62506" lon="6.93619">
        <ele>2032</ele>
        <time>2008-03-15T13:18:09Z</time>
      </trkpt>
      <trkpt lat="45.62506" lon="6.93601">
        <ele>2030</ele>
        <time>2008-03-15T13:18:20Z</time>
      </trkpt>
      <trkpt lat="45.62505" lon="6.936">
        <ele>2027</ele>
        <time>2008-03-15T13:18:28Z</time>
      </trkpt>
      <trkpt lat="45.62499" lon="6.93597">
        <ele>2029</ele>
        <time>2008-03-15T13:18:47Z</time>
      </trkpt>
      <trkpt lat="45.62498" lon="6.93594">
        <ele>2029</ele>
        <time>2008-03-15T13:18:48Z</time>
      </trkpt>
      <trkpt lat="45.62494" lon="6.93562">
        <ele>2026</ele>
        <time>2008-03-15T13:18:54Z</time>
      </trkpt>
      <trkpt lat="45.62501" lon="6.93555">
        <ele>2026</ele>
        <time>2008-03-15T13:18:57Z</time>
      </trkpt>
      <trkpt lat="45.6251" lon="6.93535">
        <ele>2024</ele>
        <time>2008-03-15T13:19:02Z</time>
      </trkpt>
      <trkpt lat="45.62512" lon="6.935">
        <ele>2019</ele>
        <time>2008-03-15T13:19:08Z</time>
      </trkpt>
      <trkpt lat="45.62491" lon="6.93492">
        <ele>2018</ele>
        <time>2008-03-15T13:19:12Z</time>
      </trkpt>
      <trkpt lat="45.62466" lon="6.93494">
        <ele>2016</ele>
        <time>2008-03-15T13:19:15Z</time>
      </trkpt>
      <trkpt lat="45.62382" lon="6.93488">
        <ele>2014</ele>
        <time>2008-03-15T13:19:24Z</time>
      </trkpt>
      <trkpt lat="45.6235" lon="6.93472">
        <ele>2012</ele>
        <time>2008-03-15T13:19:28Z</time>
      </trkpt>
      <trkpt lat="45.62327" lon="6.93413">
        <ele>2011</ele>
        <time>2008-03-15T13:19:33Z</time>
      </trkpt>
      <trkpt lat="45.62323" lon="6.93392">
        <ele>2009</ele>
        <time>2008-03-15T13:19:35Z</time>
      </trkpt>
      <trkpt lat="45.62318" lon="6.93362">
        <ele>2009</ele>
        <time>2008-03-15T13:19:38Z</time>
      </trkpt>
      <trkpt lat="45.62311" lon="6.93314">
        <ele>2006</ele>
        <time>2008-03-15T13:19:43Z</time>
      </trkpt>
      <trkpt lat="45.62331" lon="6.93172">
        <ele>1995</ele>
        <time>2008-03-15T13:19:57Z</time>
      </trkpt>
      <trkpt lat="45.62384" lon="6.93029">
        <ele>1989</ele>
        <time>2008-03-15T13:20:09Z</time>
      </trkpt>
      <trkpt lat="45.62393" lon="6.93046">
        <ele>1987</ele>
        <time>2008-03-15T13:20:10Z</time>
      </trkpt>
      <trkpt lat="45.62397" lon="6.92938">
        <ele>1985</ele>
        <time>2008-03-15T13:20:19Z</time>
      </trkpt>
      <trkpt lat="45.62408" lon="6.92911">
        <ele>1977</ele>
        <time>2008-03-15T13:20:32Z</time>
      </trkpt>
      <trkpt lat="45.6241" lon="6.9289">
        <ele>1973</ele>
        <time>2008-03-15T13:20:44Z</time>
      </trkpt>
      <trkpt lat="45.62416" lon="6.92914">
        <ele>1946</ele>
        <time>2008-03-15T13:21:32Z</time>
      </trkpt>
      <trkpt lat="45.62416" lon="6.92914">
        <ele>1947</ele>
        <time>2008-03-15T13:21:39Z</time>
      </trkpt>
      <trkpt lat="45.6242" lon="6.92888">
        <ele>1946</ele>
        <time>2008-03-15T13:21:43Z</time>
      </trkpt>
      <trkpt lat="45.62456" lon="6.92682">
        <ele>1939</ele>
        <time>2008-03-15T13:22:01Z</time>
      </trkpt>
      <trkpt lat="45.62457" lon="6.92621">
        <ele>1936</ele>
        <time>2008-03-15T13:22:12Z</time>
      </trkpt>
      <trkpt lat="45.62448" lon="6.92551">
        <ele>1931</ele>
        <time>2008-03-15T13:22:25Z</time>
      </trkpt>
      <trkpt lat="45.62443" lon="6.92497">
        <ele>1930</ele>
        <time>2008-03-15T13:22:33Z</time>
      </trkpt>
      <trkpt lat="45.62444" lon="6.92432">
        <ele>1927</ele>
        <time>2008-03-15T13:22:43Z</time>
      </trkpt>
      <trkpt lat="45.62436" lon="6.92402">
        <ele>1920</ele>
        <time>2008-03-15T13:22:53Z</time>
      </trkpt>
      <trkpt lat="45.6243" lon="6.92388">
        <ele>1919</ele>
        <time>2008-03-15T13:23:09Z</time>
      </trkpt>
      <trkpt lat="45.62431" lon="6.92388">
        <ele>1918</ele>
        <time>2008-03-15T13:23:13Z</time>
      </trkpt>
      <trkpt lat="45.62435" lon="6.92389">
        <ele>1918</ele>
        <time>2008-03-15T13:23:15Z</time>
      </trkpt>
      <trkpt lat="45.62431" lon="6.92378">
        <ele>1916</ele>
        <time>2008-03-15T13:23:20Z</time>
      </trkpt>
      <trkpt lat="45.62433" lon="6.92377">
        <ele>1916</ele>
        <time>2008-03-15T13:23:22Z</time>
      </trkpt>
      <trkpt lat="45.62434" lon="6.92373">
        <ele>1916</ele>
        <time>2008-03-15T13:23:24Z</time>
      </trkpt>
      <trkpt lat="45.6244" lon="6.92373">
        <ele>1915</ele>
        <time>2008-03-15T13:23:27Z</time>
      </trkpt>
      <trkpt lat="45.62459" lon="6.92386">
        <ele>1914</ele>
        <time>2008-03-15T13:23:31Z</time>
      </trkpt>
      <trkpt lat="45.62467" lon="6.92373">
        <ele>1914</ele>
        <time>2008-03-15T13:23:35Z</time>
      </trkpt>
      <trkpt lat="45.6247" lon="6.92358">
        <ele>1914</ele>
        <time>2008-03-15T13:23:37Z</time>
      </trkpt>
      <trkpt lat="45.62465" lon="6.92314">
        <ele>1913</ele>
        <time>2008-03-15T13:23:43Z</time>
      </trkpt>
      <trkpt lat="45.62465" lon="6.92305">
        <ele>1913</ele>
        <time>2008-03-15T13:23:44Z</time>
      </trkpt>
      <trkpt lat="45.62465" lon="6.92288">
        <ele>1913</ele>
        <time>2008-03-15T13:23:46Z</time>
      </trkpt>
      <trkpt lat="45.62494" lon="6.92291">
        <ele>1907</ele>
        <time>2008-03-15T13:23:54Z</time>
      </trkpt>
      <trkpt lat="45.62482" lon="6.92281">
        <ele>1901</ele>
        <time>2008-03-15T13:24:23Z</time>
      </trkpt>
      <trkpt lat="45.6248" lon="6.92281">
        <ele>1900</ele>
        <time>2008-03-15T13:24:25Z</time>
      </trkpt>
      <trkpt lat="45.62479" lon="6.92272">
        <ele>1899</ele>
        <time>2008-03-15T13:24:27Z</time>
      </trkpt>
      <trkpt lat="45.62474" lon="6.92248">
        <ele>1898</ele>
        <time>2008-03-15T13:24:31Z</time>
      </trkpt>
      <trkpt lat="45.62457" lon="6.92226">
        <ele>1895</ele>
        <time>2008-03-15T13:24:35Z</time>
      </trkpt>
      <trkpt lat="45.6242" lon="6.92178">
        <ele>1891</ele>
        <time>2008-03-15T13:24:41Z</time>
      </trkpt>
      <trkpt lat="45.62404" lon="6.92124">
        <ele>1889</ele>
        <time>2008-03-15T13:24:47Z</time>
      </trkpt>
      <trkpt lat="45.62378" lon="6.9201">
        <ele>1885</ele>
        <time>2008-03-15T13:25:01Z</time>
      </trkpt>
      <trkpt lat="45.6235" lon="6.91975">
        <ele>1879</ele>
        <time>2008-03-15T13:25:08Z</time>
      </trkpt>
      <trkpt lat="45.62318" lon="6.91946">
        <ele>1846</ele>
        <time>2008-03-15T13:25:18Z</time>
      </trkpt>
      <trkpt lat="45.6232" lon="6.91947">
        <ele>1778</ele>
        <time>2008-03-15T13:25:36Z</time>
      </trkpt>
      <trkpt lat="45.62322" lon="6.91952">
        <ele>1871</ele>
        <time>2008-03-15T13:26:03Z</time>
      </trkpt>
      <trkpt lat="45.62291" lon="6.91932">
        <ele>1832</ele>
        <time>2008-03-15T13:26:09Z</time>
      </trkpt>
      <trkpt lat="45.62286" lon="6.91928">
        <ele>1831</ele>
        <time>2008-03-15T13:26:10Z</time>
      </trkpt>
      <trkpt lat="45.62246" lon="6.91885">
        <ele>1835</ele>
        <time>2008-03-15T13:26:24Z</time>
      </trkpt>
      <trkpt lat="45.62223" lon="6.91867">
        <ele>1833</ele>
        <time>2008-03-15T13:26:32Z</time>
      </trkpt>
      <trkpt lat="45.62216" lon="6.91856">
        <ele>1832</ele>
        <time>2008-03-15T13:26:34Z</time>
      </trkpt>
      <trkpt lat="45.62205" lon="6.91843">
        <ele>1833</ele>
        <time>2008-03-15T13:26:37Z</time>
      </trkpt>
      <trkpt lat="45.62186" lon="6.91824">
        <ele>1831</ele>
        <time>2008-03-15T13:26:41Z</time>
      </trkpt>
      <trkpt lat="45.62159" lon="6.91814">
        <ele>1830</ele>
        <time>2008-03-15T13:26:47Z</time>
      </trkpt>
      <trkpt lat="45.62153" lon="6.91813">
        <ele>1830</ele>
        <time>2008-03-15T13:26:48Z</time>
      </trkpt>
      <trkpt lat="45.62134" lon="6.91834">
        <ele>1825</ele>
        <time>2008-03-15T13:26:55Z</time>
      </trkpt>
      <trkpt lat="45.62129" lon="6.91835">
        <ele>1824</ele>
        <time>2008-03-15T13:26:56Z</time>
      </trkpt>
      <trkpt lat="45.62106" lon="6.91871">
        <ele>1820</ele>
        <time>2008-03-15T13:27:01Z</time>
      </trkpt>
      <trkpt lat="45.6208" lon="6.91888">
        <ele>1815</ele>
        <time>2008-03-15T13:27:05Z</time>
      </trkpt>
      <trkpt lat="45.62064" lon="6.91876">
        <ele>1738</ele>
        <time>2008-03-15T13:27:09Z</time>
      </trkpt>
      <trkpt lat="45.6205" lon="6.91858">
        <ele>1741</ele>
        <time>2008-03-15T13:27:13Z</time>
      </trkpt>
      <trkpt lat="45.62035" lon="6.9187">
        <ele>1743</ele>
        <time>2008-03-15T13:27:18Z</time>
      </trkpt>
      <trkpt lat="45.61973" lon="6.9181">
        <ele>1740</ele>
        <time>2008-03-15T13:27:40Z</time>
      </trkpt>
      <trkpt lat="45.61967" lon="6.91802">
        <ele>1740</ele>
        <time>2008-03-15T13:27:42Z</time>
      </trkpt>
      <trkpt lat="45.6195" lon="6.91795">
        <ele>1741</ele>
        <time>2008-03-15T13:27:48Z</time>
      </trkpt>
      <trkpt lat="45.61952" lon="6.91794">
        <ele>1744</ele>
        <time>2008-03-15T13:28:00Z</time>
      </trkpt>
      <trkpt lat="45.61954" lon="6.918">
        <ele>1749</ele>
        <time>2008-03-15T13:29:26Z</time>
      </trkpt>
      <trkpt lat="45.61957" lon="6.91796">
        <ele>1749</ele>
        <time>2008-03-15T13:30:31Z</time>
      </trkpt>
    </trkseg>
  </trk>
</gpx>